This is the latest recevied weather packets stored in our database for station/object K1TTC. If no packets are shown the sender has not sent any weather packets the latest 10 day(s).
| Time | Temp. | Humidity | Pressure | Rain* | Wind** | Luminosity | Snow |
|---|---|---|---|---|---|---|---|
| 1777394701 | 18.33° C | 38% | 1024 hPa | 0 mm | - | 921 W/m² | - |
| 1777393987 | 17.78° C | 40% | 1024.1 hPa | 0 mm | - | 916 W/m² | - |
| 1777393386 | 17.78° C | 40% | 1024.1 hPa | 0 mm | - | 912 W/m² | - |
| 1777392789 | 17.22° C | 40% | 1024.1 hPa | 0 mm | - | 909 W/m² | - |
| 1777392186 | 17.22° C | 39% | 1024.2 hPa | 0 mm | - | 907 W/m² | - |
| 1777391585 | 16.67° C | 39% | 1024.2 hPa | 0 mm | - | 904 W/m² | - |
| 1777390985 | 16.67° C | 40% | 1024.4 hPa | 0 mm | - | 889 W/m² | - |
| 1777390384 | 16.67° C | 38% | 1024.5 hPa | 0 mm | - | 886 W/m² | - |
| 1777389782 | 16.11° C | 40% | 1024.7 hPa | 0 mm | - | 872 W/m² | - |
| 1777389298 | 16.11° C | 40% | 1024.8 hPa | 0 mm | - | 861 W/m² | - |
| 1777388670 | 16.11° C | 40% | 1024.8 hPa | 0 mm | - | 847 W/m² | - |
| 1777387984 | 15.56° C | 38% | 1024.9 hPa | 0 mm | - | 830 W/m² | - |
| 1777387383 | 15.56° C | 40% | 1024.8 hPa | 0 mm | - | 821 W/m² | - |
| 1777386866 | 15.56° C | 41% | 1024.8 hPa | 0 mm | - | 795 W/m² | - |
| 1777386181 | 15° C | 41% | 1024.9 hPa | 0 mm | - | 784 W/m² | - |
| 1777385670 | 14.44° C | 41% | 1024.8 hPa | 0 mm | - | 759 W/m² | - |
| 1777384982 | 14.44° C | 42% | 1024.7 hPa | 0 mm | - | 738 W/m² | - |
| 1777384382 | 14.44° C | 42% | 1024.7 hPa | 0 mm | - | 715 W/m² | - |
| 1777383782 | 13.89° C | 43% | 1024.7 hPa | 0 mm | - | 691 W/m² | - |
| 1777383184 | 13.33° C | 47% | 1024.7 hPa | 0 mm | - | 666 W/m² | - |
| 1777382583 | 12.78° C | 49% | 1024.8 hPa | 0 mm | - | 640 W/m² | - |
| 1777382074 | 12.22° C | 53% | 1024.7 hPa | 0 mm | - | 612 W/m² | - |
| 1777381459 | 11.67° C | 56% | 1024.8 hPa | 0 mm | - | 584 W/m² | - |
| 1777380862 | 10.56° C | 61% | 1025 hPa | 0 mm | - | 554 W/m² | - |
| 1777380182 | 10° C | 65% | 1025 hPa | 0 mm | - | 522 W/m² | - |
* Rain latest hour (hover to see other rain measurements)
** Current wind speed in m/s (hover to see current wind gust speed)